createdAt,value
2022-10-16T00:02:16.573Z,3.17
2022-10-16T00:04:46.956Z,6.47
2022-10-16T00:07:28.452Z,3.15
2022-10-16T00:10:00.263Z,5.50
2022-10-16T00:12:32.462Z,2.63
2022-10-16T00:15:02.932Z,4.17
2022-10-16T00:17:37.622Z,3.47
2022-10-16T00:20:07.414Z,3.53
2022-10-16T00:22:42.573Z,4.53
2022-10-16T00:25:22.214Z,2.65
2022-10-16T00:27:52.460Z,3.22
2022-10-16T00:30:25.126Z,4.68
2022-10-16T00:32:55.688Z,5.60
2022-10-16T00:35:38.406Z,4.00
2022-10-16T00:38:10.866Z,3.47
2022-10-16T00:40:40.188Z,6.07
2022-10-16T00:43:16.579Z,4.25
2022-10-16T00:45:48.770Z,3.75
2022-10-16T00:48:17.285Z,3.83
2022-10-16T00:50:52.807Z,4.15
2022-10-16T00:53:25.962Z,2.97
2022-10-16T00:58:29.203Z,4.32
2022-10-16T01:00:57.778Z,3.85
2022-10-16T01:03:36.222Z,3.55
2022-10-16T01:09:14.589Z,3.58
2022-10-16T01:11:56.090Z,3.28
2022-10-16T01:14:41.564Z,2.78
2022-10-16T01:17:18.192Z,3.70
2022-10-16T01:20:05.831Z,2.47
2022-10-16T01:23:07.084Z,4.10
2022-10-16T01:26:13.204Z,6.50
2022-10-16T01:28:51.212Z,6.00
2022-10-16T01:31:29.644Z,4.22
2022-10-16T01:34:07.139Z,4.18
2022-10-16T01:36:46.744Z,3.50
2022-10-16T01:39:42.189Z,4.32
2022-10-16T01:42:26.837Z,4.95
2022-10-16T01:45:07.548Z,3.35
2022-10-16T01:48:00.390Z,4.75
2022-10-16T01:50:31.775Z,5.03
2022-10-16T01:53:07.230Z,4.13
2022-10-16T01:56:10.144Z,4.18
2022-10-16T01:58:58.659Z,3.80
2022-10-16T02:01:50.559Z,4.45
2022-10-16T02:04:31.617Z,3.47
2022-10-16T02:07:04.282Z,3.47
2022-10-16T02:09:46.519Z,4.72
2022-10-16T02:12:35.280Z,3.58
2022-10-16T02:15:14.280Z,6.57
2022-10-16T02:17:46.076Z,3.67
2022-10-16T02:20:20.111Z,7.35
2022-10-16T02:22:57.744Z,3.42
2022-10-16T02:25:38.396Z,4.68
2022-10-16T02:28:18.767Z,11.65
2022-10-16T02:30:59.917Z,4.90
2022-10-16T02:33:35.117Z,5.25
2022-10-16T02:36:17.587Z,4.93
2022-10-16T02:38:49.074Z,3.83
2022-10-16T02:41:21.581Z,4.03
2022-10-16T02:44:00.441Z,3.97
2022-10-16T02:46:32.543Z,2.92
2022-10-16T02:49:05.628Z,3.40
2022-10-16T02:51:35.519Z,7.13
2022-10-16T02:54:05.122Z,3.53
2022-10-16T02:56:50.912Z,3.60
2022-10-16T02:59:21.420Z,3.45
2022-10-16T03:01:50.364Z,3.25
2022-10-16T03:04:24.753Z,3.80
2022-10-16T03:06:53.886Z,5.70
2022-10-16T03:09:27.304Z,3.72
2022-10-16T03:12:01.864Z,3.63
2022-10-16T03:14:34.557Z,3.35
2022-10-16T03:17:16.296Z,3.97
2022-10-16T03:20:01.370Z,3.72
2022-10-16T03:22:32.797Z,3.35
2022-10-16T03:25:09.570Z,5.97
2022-10-16T03:27:50.225Z,4.88
2022-10-16T03:30:24.100Z,3.63
2022-10-16T03:32:58.432Z,4.15
2022-10-16T03:35:37.235Z,6.03
2022-10-16T03:38:11.862Z,5.97
2022-10-16T03:40:41.593Z,5.18
2022-10-16T03:43:25.877Z,3.95
2022-10-16T03:45:58.923Z,4.00
2022-10-16T03:48:30.332Z,4.55
2022-10-16T03:51:04.530Z,3.22
2022-10-16T03:53:42.533Z,4.65
2022-10-16T03:56:15.751Z,3.40
2022-10-16T03:58:51.363Z,3.80
2022-10-16T04:01:25.784Z,3.38
2022-10-16T04:04:01.312Z,3.20
2022-10-16T04:06:37.518Z,3.60
2022-10-16T04:09:09.305Z,3.53
2022-10-16T04:11:46.539Z,4.65
2022-10-16T04:14:19.331Z,4.47
2022-10-16T04:16:52.641Z,4.63
2022-10-16T04:19:28.133Z,4.60
2022-10-16T04:22:06.141Z,4.55
2022-10-16T04:24:38.194Z,5.85
2022-10-16T04:27:08.999Z,4.68
2022-10-16T04:29:38.762Z,4.45
2022-10-16T04:32:12.356Z,6.10
2022-10-16T04:34:49.560Z,4.20
2022-10-16T04:37:33.933Z,4.60
2022-10-16T04:40:06.238Z,3.72
2022-10-16T04:42:38.307Z,6.43
2022-10-16T04:45:12.103Z,4.55
2022-10-16T04:47:51.411Z,7.55
2022-10-16T04:50:41.241Z,4.80
2022-10-16T04:53:23.033Z,4.10
2022-10-16T04:56:10.605Z,4.63
2022-10-16T04:58:46.194Z,4.13
2022-10-16T05:01:32.069Z,5.18
2022-10-16T05:04:22.973Z,6.32
2022-10-16T05:07:05.252Z,5.22
2022-10-16T05:09:37.866Z,6.43
2022-10-16T05:12:26.231Z,6.03
2022-10-16T05:15:05.131Z,5.35
2022-10-16T05:17:34.835Z,6.15
2022-10-16T05:20:18.735Z,6.80
2022-10-16T05:22:50.069Z,5.82
2022-10-16T05:25:24.004Z,7.55
2022-10-16T05:28:02.735Z,4.90
2022-10-16T05:30:38.613Z,7.68
2022-10-16T05:33:18.477Z,5.85
2022-10-16T05:35:51.989Z,4.95
2022-10-16T05:38:24.879Z,5.15
2022-10-16T05:41:13.934Z,5.22
2022-10-16T05:43:57.877Z,5.03
2022-10-16T05:46:27.204Z,5.65
2022-10-16T05:49:11.057Z,5.13
2022-10-16T05:51:48.033Z,5.78
2022-10-16T05:54:26.951Z,5.28
2022-10-16T05:57:09.280Z,5.45
2022-10-16T05:59:44.879Z,5.55
2022-10-16T06:02:18.797Z,6.28
2022-10-16T06:04:51.529Z,6.32
2022-10-16T06:07:28.006Z,4.80
2022-10-16T06:10:08.635Z,8.18
2022-10-16T06:12:40.119Z,7.95
2022-10-16T06:15:18.097Z,4.57
2022-10-16T06:17:59.644Z,4.45
2022-10-16T06:20:39.335Z,6.93
2022-10-16T06:23:15.943Z,6.22
2022-10-16T06:25:50.476Z,5.90
2022-10-16T06:28:22.405Z,5.55
2022-10-16T06:31:05.618Z,6.40
2022-10-16T06:33:37.168Z,8.82
2022-10-16T06:36:09.366Z,6.78
2022-10-16T06:38:47.099Z,6.70
2022-10-16T06:41:19.141Z,5.82
2022-10-16T06:43:51.449Z,5.57
2022-10-16T06:46:25.015Z,5.03
2022-10-16T06:48:53.907Z,5.05
2022-10-16T06:51:25.154Z,5.03
2022-10-16T06:54:02.790Z,6.82
2022-10-16T06:56:33.423Z,5.47
2022-10-16T06:59:04.603Z,7.70
2022-10-16T07:01:38.034Z,6.22
2022-10-16T07:04:07.429Z,5.82
2022-10-16T07:06:38.683Z,5.95
2022-10-16T07:09:09.078Z,6.80
2022-10-16T07:11:40.673Z,5.20
2022-10-16T07:14:18.728Z,5.65
2022-10-16T07:16:51.148Z,5.97
2022-10-16T07:19:20.123Z,7.03
2022-10-16T07:21:50.225Z,4.60
2022-10-16T07:24:20.614Z,5.65
2022-10-16T07:26:51.832Z,4.68
2022-10-16T07:29:24.548Z,5.10
2022-10-16T07:31:55.695Z,7.35
2022-10-16T07:34:24.303Z,7.50
2022-10-16T07:36:53.844Z,7.50
2022-10-16T07:39:24.330Z,7.10
2022-10-16T07:41:53.123Z,6.88
2022-10-16T07:44:21.927Z,5.55
2022-10-16T07:46:50.904Z,4.72
2022-10-16T07:49:22.740Z,6.07
2022-10-16T07:51:51.049Z,6.13
2022-10-16T07:54:26.724Z,6.50
2022-10-16T07:56:55.583Z,5.95
2022-10-16T07:59:23.948Z,6.55
2022-10-16T08:01:52.716Z,5.90
2022-10-16T08:04:22.707Z,5.47
2022-10-16T08:06:55.399Z,4.82
2022-10-16T08:09:26.977Z,4.65
2022-10-16T08:12:02.104Z,5.93
2022-10-16T08:14:30.902Z,5.07
2022-10-16T08:17:03.289Z,4.35
2022-10-16T08:19:35.910Z,7.10
2022-10-16T08:22:05.498Z,5.50
2022-10-16T08:24:35.854Z,8.10
2022-10-16T08:27:05.334Z,7.00
2022-10-16T08:29:35.690Z,6.55
2022-10-16T08:32:06.300Z,6.13
2022-10-16T08:34:39.571Z,6.13
2022-10-16T08:37:09.107Z,5.90
2022-10-16T08:39:39.268Z,5.13
2022-10-16T08:42:22.598Z,4.72
2022-10-16T08:47:47.835Z,3.85
2022-10-16T08:50:25.102Z,4.13
2022-10-16T08:52:57.273Z,5.78
2022-10-16T08:55:36.552Z,5.07
2022-10-16T08:58:13.406Z,6.05
2022-10-16T09:00:46.923Z,5.68
2022-10-16T09:03:24.571Z,4.95
2022-10-16T09:06:17.002Z,5.13
2022-10-16T09:09:03.438Z,4.30
2022-10-16T09:11:41.262Z,5.15
2022-10-16T09:14:37.441Z,4.53
2022-10-16T09:17:19.427Z,4.55
2022-10-16T09:19:54.751Z,4.60
2022-10-16T09:22:29.522Z,5.22
2022-10-16T09:25:04.264Z,4.38
2022-10-16T09:27:33.422Z,3.78
2022-10-16T09:30:13.332Z,5.57
2022-10-16T09:32:42.613Z,3.58
2022-10-16T09:35:22.127Z,2.88
2022-10-16T09:37:57.425Z,3.33
2022-10-16T09:40:32.182Z,2.78
2022-10-16T09:43:08.994Z,3.45
2022-10-16T09:45:42.834Z,3.20
2022-10-16T09:48:14.811Z,5.63
2022-10-16T09:50:46.114Z,3.97
2022-10-16T09:53:22.244Z,6.35
2022-10-16T09:55:52.389Z,3.38
2022-10-16T09:58:25.075Z,2.97
2022-10-16T10:00:57.124Z,3.30
2022-10-16T10:03:38.049Z,4.17
2022-10-16T10:06:21.371Z,3.83
2022-10-16T10:11:58.663Z,2.83
2022-10-16T10:14:38.366Z,5.30
2022-10-16T10:17:17.572Z,3.90
2022-10-16T10:19:50.667Z,3.85
2022-10-16T10:25:14.219Z,3.58
2022-10-16T10:27:53.261Z,2.53
2022-10-16T10:30:27.338Z,5.20
2022-10-16T10:33:14.174Z,2.58
2022-10-16T10:35:51.636Z,5.35
2022-10-16T10:38:34.354Z,4.30
2022-10-16T10:41:26.648Z,4.70
2022-10-16T10:44:12.476Z,2.78
2022-10-16T10:46:45.820Z,2.78
2022-10-16T10:49:40.160Z,3.85
2022-10-16T10:52:29.438Z,2.70
2022-10-16T10:55:03.011Z,4.72
2022-10-16T10:57:44.164Z,4.63
2022-10-16T11:00:23.979Z,2.53
2022-10-16T11:03:00.164Z,3.28
2022-10-16T11:05:42.896Z,3.83
2022-10-16T11:08:20.490Z,3.72
2022-10-16T11:10:53.880Z,2.80
2022-10-16T11:13:49.467Z,3.08
2022-10-16T11:16:22.788Z,3.78
2022-10-16T11:19:00.682Z,5.97
2022-10-16T11:21:34.052Z,3.75
2022-10-16T11:24:07.338Z,3.10
2022-10-16T11:26:44.317Z,2.70
2022-10-16T11:29:21.647Z,2.88
2022-10-16T11:31:55.323Z,2.50
2022-10-16T11:34:35.537Z,3.17
2022-10-16T11:37:11.297Z,3.85
2022-10-16T11:39:43.442Z,7.07
2022-10-16T11:42:19.382Z,3.28
2022-10-16T11:45:01.118Z,2.38
2022-10-16T11:53:29.513Z,4.95
2022-10-16T11:55:59.899Z,3.20
2022-10-16T11:58:35.365Z,3.17
2022-10-16T12:01:20.505Z,4.03
2022-10-16T12:03:57.746Z,3.47
2022-10-16T12:06:34.051Z,3.00
2022-10-16T12:09:05.217Z,2.78
2022-10-16T12:11:39.534Z,2.30
2022-10-16T12:14:19.927Z,4.05
2022-10-16T12:16:57.817Z,2.95
2022-10-16T12:19:28.490Z,4.03
2022-10-16T12:22:00.401Z,2.35
2022-10-16T12:24:36.735Z,4.05
2022-10-16T12:27:07.707Z,2.20
2022-10-16T12:29:41.089Z,2.97
2022-10-16T12:32:47.148Z,2.50
2022-10-16T12:35:24.112Z,3.60
2022-10-16T12:37:53.406Z,3.38
2022-10-16T12:40:33.549Z,2.53
2022-10-16T12:43:12.953Z,2.17
2022-10-16T12:45:46.553Z,4.47
2022-10-16T12:48:29.318Z,2.10
2022-10-16T12:51:23.937Z,3.42
2022-10-16T12:54:01.116Z,2.63
2022-10-16T12:56:46.471Z,2.38
2022-10-16T12:59:24.150Z,2.88
2022-10-16T13:02:10.703Z,3.35
2022-10-16T13:05:21.232Z,2.38
2022-10-16T13:08:02.942Z,5.03
2022-10-16T13:10:37.936Z,3.08
2022-10-16T13:13:24.370Z,3.15
2022-10-16T13:16:05.766Z,3.20
2022-10-16T13:18:46.572Z,3.17
2022-10-16T13:21:27.583Z,3.97
2022-10-16T13:24:03.969Z,6.90
2022-10-16T13:26:43.316Z,3.90
2022-10-16T13:29:12.314Z,4.00
2022-10-16T13:31:41.013Z,3.38
2022-10-16T13:34:16.921Z,3.53
2022-10-16T13:36:52.427Z,2.58
2022-10-16T13:39:26.864Z,3.08
2022-10-16T13:42:09.006Z,2.50
2022-10-16T13:44:42.235Z,4.28
2022-10-16T13:49:45.578Z,8.32
2022-10-16T13:52:23.311Z,4.88
2022-10-16T13:54:52.078Z,4.28
2022-10-16T13:57:27.921Z,4.57
2022-10-16T13:59:56.533Z,3.83
2022-10-16T14:02:29.902Z,3.15
2022-10-16T14:05:02.313Z,4.95
2022-10-16T14:07:38.585Z,10.80
2022-10-16T14:10:09.495Z,8.73
2022-10-16T14:12:39.466Z,9.50
2022-10-16T14:15:21.836Z,8.93
2022-10-16T14:17:54.484Z,5.73
2022-10-16T14:20:28.426Z,9.55
2022-10-16T14:23:20.975Z,5.63
2022-10-16T14:25:56.593Z,5.27
2022-10-16T14:28:26.013Z,4.25
2022-10-16T14:30:59.233Z,3.58
2022-10-16T14:33:35.646Z,4.78
2022-10-16T14:36:06.896Z,6.65
2022-10-16T14:38:38.689Z,7.68
2022-10-16T14:41:07.734Z,6.57
2022-10-16T14:43:39.787Z,4.53
2022-10-16T14:46:14.347Z,5.47
2022-10-16T14:48:44.544Z,6.30
2022-10-16T14:51:17.131Z,4.95
2022-10-16T14:53:47.945Z,5.80
2022-10-16T14:56:20.240Z,4.43
2022-10-16T14:58:48.776Z,3.97
2022-10-16T15:01:17.021Z,3.35
2022-10-16T15:03:46.320Z,5.40
2022-10-16T15:06:26.125Z,4.32
2022-10-16T15:08:55.665Z,5.10
2022-10-16T15:11:24.482Z,4.15
2022-10-16T15:13:53.713Z,4.10
2022-10-16T15:16:21.877Z,4.50
2022-10-16T15:18:49.892Z,3.83
2022-10-16T15:21:30.890Z,3.35
2022-10-16T15:24:02.201Z,4.00
2022-10-16T15:26:32.704Z,6.47
2022-10-16T15:29:01.290Z,6.13
2022-10-16T15:31:29.572Z,4.22
2022-10-16T15:34:03.137Z,4.63
2022-10-16T15:36:34.756Z,5.30
2022-10-16T15:39:05.345Z,7.32
2022-10-16T15:41:37.656Z,4.50
2022-10-16T15:44:06.508Z,5.05
2022-10-16T15:46:38.797Z,5.40
2022-10-16T15:49:08.392Z,3.95
2022-10-16T15:51:40.753Z,3.70
2022-10-16T15:54:10.502Z,3.63
2022-10-16T15:56:39.205Z,4.32
2022-10-16T15:59:08.362Z,4.30
2022-10-16T16:01:36.721Z,4.30
2022-10-16T16:04:11.341Z,4.57
2022-10-16T16:06:55.615Z,4.40
2022-10-16T16:09:25.436Z,4.97
2022-10-16T16:11:53.716Z,5.30
2022-10-16T16:14:22.355Z,4.85
2022-10-16T16:16:51.460Z,4.18
2022-10-16T16:19:22.320Z,9.32
2022-10-16T16:21:51.438Z,5.43
2022-10-16T16:24:22.885Z,4.40
2022-10-16T16:26:53.677Z,6.35
2022-10-16T16:29:22.059Z,6.38
2022-10-16T16:31:50.675Z,6.00
2022-10-16T16:34:19.377Z,5.72
2022-10-16T16:36:47.389Z,7.47
2022-10-16T16:39:16.106Z,6.68
2022-10-16T16:41:52.492Z,5.70
2022-10-16T16:44:22.239Z,5.47
2022-10-16T16:46:53.301Z,6.50
2022-10-16T16:49:21.419Z,7.82
2022-10-16T16:51:50.414Z,5.45
2022-10-16T16:54:19.258Z,6.60
2022-10-16T16:56:47.334Z,5.55
2022-10-16T16:59:17.913Z,8.60
2022-10-16T17:01:58.085Z,9.27
2022-10-16T17:04:26.543Z,10.38
2022-10-16T17:06:57.953Z,11.45
2022-10-16T17:09:27.096Z,8.48
2022-10-16T17:11:57.358Z,8.40
2022-10-16T17:14:26.690Z,8.65
2022-10-16T17:17:07.798Z,9.52
2022-10-16T17:19:36.447Z,9.43
2022-10-16T17:22:05.325Z,11.60
2022-10-16T17:24:33.971Z,7.70
2022-10-16T17:27:04.391Z,10.00
2022-10-16T17:29:34.965Z,8.50
2022-10-16T17:32:08.408Z,9.68
2022-10-16T17:34:37.029Z,9.48
2022-10-16T17:37:05.391Z,10.80
2022-10-16T17:39:33.425Z,11.73
2022-10-16T17:42:04.246Z,9.50
2022-10-16T17:44:33.351Z,10.52
2022-10-16T17:47:02.916Z,9.68
2022-10-16T17:49:32.429Z,9.07
2022-10-16T17:52:02.994Z,9.85
2022-10-16T17:54:31.024Z,11.55
2022-10-16T17:56:59.542Z,13.57
2022-10-16T17:59:29.564Z,11.52
2022-10-16T18:01:57.894Z,11.70
2022-10-16T18:04:26.696Z,10.80
2022-10-16T18:06:57.339Z,12.45
2022-10-16T18:09:26.164Z,19.27
2022-10-16T18:12:01.662Z,16.20
2022-10-16T18:14:32.732Z,16.50
2022-10-16T18:17:10.544Z,23.10
2022-10-16T18:19:38.789Z,17.15
2022-10-16T18:22:08.267Z,15.32
2022-10-16T18:24:38.237Z,15.02
2022-10-16T18:27:07.835Z,12.32
2022-10-16T18:29:36.205Z,10.90
2022-10-16T18:32:04.983Z,10.73
2022-10-16T18:34:37.372Z,8.35
2022-10-16T18:37:06.832Z,8.50
2022-10-16T18:39:36.396Z,8.85
2022-10-16T18:42:04.802Z,9.20
2022-10-16T18:44:35.219Z,9.20
2022-10-16T18:47:03.298Z,8.45
2022-10-16T18:49:35.647Z,9.18
2022-10-16T18:52:03.786Z,10.07
2022-10-16T18:54:38.903Z,10.15
2022-10-16T18:57:07.855Z,9.70
2022-10-16T18:59:36.133Z,8.40
2022-10-16T19:02:04.466Z,11.35
2022-10-16T19:04:33.512Z,14.90
2022-10-16T19:07:01.485Z,16.67
2022-10-16T19:09:29.530Z,16.50
2022-10-16T19:11:59.969Z,16.27
2022-10-16T19:14:30.269Z,20.77
2022-10-16T19:16:59.331Z,14.27
2022-10-16T19:19:27.405Z,14.98
2022-10-16T19:22:11.419Z,14.52
2022-10-16T19:24:40.991Z,13.13
2022-10-16T19:27:10.503Z,11.82
2022-10-16T19:29:40.284Z,12.40
2022-10-16T19:32:09.611Z,13.25
2022-10-16T19:34:38.068Z,16.48
2022-10-16T19:37:10.456Z,15.93
2022-10-16T19:39:41.564Z,11.88
2022-10-16T19:42:11.492Z,13.05
2022-10-16T19:44:42.431Z,14.40
2022-10-16T19:47:11.248Z,11.65
2022-10-16T19:49:40.967Z,10.57
2022-10-16T19:52:09.201Z,12.73
2022-10-16T19:54:39.011Z,10.77
2022-10-16T19:57:06.931Z,11.95
2022-10-16T19:59:38.783Z,13.63
2022-10-16T20:02:10.510Z,12.43
2022-10-16T20:04:44.879Z,11.82
2022-10-16T20:07:13.116Z,14.45
2022-10-16T20:09:41.653Z,10.88
2022-10-16T20:12:09.600Z,13.75
2022-10-16T20:14:39.166Z,13.18
2022-10-16T20:17:07.624Z,13.52
2022-10-16T20:19:35.728Z,14.32
2022-10-16T20:22:03.895Z,13.13
2022-10-16T20:24:40.588Z,13.20
2022-10-16T20:27:16.071Z,14.02
2022-10-16T20:29:50.221Z,13.23
2022-10-16T20:32:19.602Z,14.52
2022-10-16T20:34:50.001Z,12.85
2022-10-16T20:37:27.352Z,13.25
2022-10-16T20:39:57.968Z,15.38
2022-10-16T20:42:26.660Z,15.07
2022-10-16T20:44:58.601Z,13.48
2022-10-16T20:47:30.300Z,13.05
2022-10-16T20:49:59.643Z,10.93
2022-10-16T20:52:30.913Z,10.40
2022-10-16T20:55:04.325Z,10.07
2022-10-16T20:57:34.466Z,12.82
2022-10-16T21:00:09.320Z,9.35
2022-10-16T21:02:40.076Z,9.93
2022-10-16T21:05:10.369Z,10.25
2022-10-16T21:07:43.705Z,11.20
2022-10-16T21:10:13.518Z,10.55
2022-10-16T21:12:44.481Z,11.88
2022-10-16T21:15:15.662Z,11.68
2022-10-16T21:17:46.758Z,9.65
2022-10-16T21:20:22.156Z,8.88
2022-10-16T21:22:54.019Z,10.93
2022-10-16T21:25:35.605Z,12.55
2022-10-16T21:28:12.823Z,15.95
2022-10-16T21:30:47.196Z,17.48
2022-10-16T21:33:16.590Z,16.77
2022-10-16T21:35:48.490Z,16.73
2022-10-16T21:38:22.897Z,16.13
2022-10-16T21:40:57.688Z,19.15
2022-10-16T21:43:36.683Z,12.50
2022-10-16T21:46:10.103Z,14.88
2022-10-16T21:48:43.301Z,14.10
2022-10-16T21:51:19.085Z,14.68
2022-10-16T21:54:03.905Z,11.95
2022-10-16T21:56:37.937Z,11.80
2022-10-16T21:59:23.633Z,12.05
2022-10-16T22:02:05.927Z,10.35
2022-10-16T22:04:43.495Z,9.40
2022-10-16T22:07:26.966Z,11.70
2022-10-16T22:10:03.413Z,15.57
2022-10-16T22:12:32.791Z,14.88
2022-10-16T22:15:07.670Z,13.63
2022-10-16T22:17:41.462Z,10.27
2022-10-16T22:20:13.810Z,12.38
2022-10-16T22:22:55.453Z,11.47
2022-10-16T22:25:25.172Z,12.55
2022-10-16T22:27:56.792Z,13.27
2022-10-16T22:30:30.326Z,14.63
2022-10-16T22:33:09.747Z,12.38
2022-10-16T22:35:40.899Z,10.52
2022-10-16T22:38:10.844Z,11.25
2022-10-16T22:40:42.131Z,9.05
2022-10-16T22:43:16.251Z,14.48
2022-10-16T22:45:45.364Z,9.98
2022-10-16T22:48:17.621Z,9.00
2022-10-16T22:50:49.583Z,8.65
2022-10-16T22:53:21.977Z,9.10
2022-10-16T22:55:55.391Z,8.75
2022-10-16T22:58:27.832Z,10.15
2022-10-16T23:03:33.855Z,13.80
2022-10-16T23:06:07.712Z,10.73
2022-10-16T23:08:39.079Z,9.77
2022-10-16T23:11:11.889Z,11.98
2022-10-16T23:13:47.538Z,10.73
2022-10-16T23:16:27.926Z,10.95
2022-10-16T23:19:03.601Z,10.00
2022-10-16T23:21:32.512Z,9.40
2022-10-16T23:24:04.773Z,10.68
2022-10-16T23:26:37.385Z,14.17
2022-10-16T23:29:09.132Z,9.75
2022-10-16T23:31:40.580Z,11.88
2022-10-16T23:34:16.401Z,12.43
2022-10-16T23:36:51.029Z,10.55
2022-10-16T23:39:20.255Z,9.93
2022-10-16T23:41:57.565Z,9.30
2022-10-16T23:44:28.026Z,12.13
2022-10-16T23:46:58.269Z,8.55
2022-10-16T23:49:39.358Z,8.55
2022-10-16T23:52:16.254Z,10.30
2022-10-16T23:54:48.435Z,10.85
2022-10-16T23:57:19.962Z,15.77
